createdAt,value
2018-09-26T00:02:04.994Z,5.00
2018-09-26T00:04:34.785Z,5.07
2018-09-26T00:07:03.120Z,4.80
2018-09-26T00:09:31.595Z,6.43
2018-09-26T00:12:00.229Z,4.87
2018-09-26T00:14:28.456Z,5.33
2018-09-26T00:16:57.228Z,3.93
2018-09-26T00:19:25.943Z,5.00
2018-09-26T00:21:54.615Z,4.27
2018-09-26T00:24:23.069Z,5.08
2018-09-26T00:26:59.104Z,4.80
2018-09-26T00:29:30.116Z,4.10
2018-09-26T00:31:58.590Z,4.67
2018-09-26T00:34:26.944Z,3.57
2018-09-26T00:36:55.609Z,3.83
2018-09-26T00:39:30.585Z,4.00
2018-09-26T00:41:59.271Z,5.47
2018-09-26T00:44:27.781Z,4.73
2018-09-26T00:46:55.910Z,5.03
2018-09-26T00:49:24.188Z,6.28
2018-09-26T00:51:52.634Z,6.30
2018-09-26T00:54:21.944Z,5.13
2018-09-26T00:56:50.500Z,4.67
2018-09-26T00:59:18.917Z,4.22
2018-09-26T01:01:47.381Z,5.00
2018-09-26T01:04:16.308Z,4.17
2018-09-26T01:06:44.768Z,4.63
2018-09-26T01:09:13.593Z,3.80
2018-09-26T01:11:42.356Z,4.40
2018-09-26T01:14:10.772Z,7.45
2018-09-26T01:16:39.007Z,5.93
2018-09-26T01:19:08.580Z,4.55
2018-09-26T01:21:37.356Z,3.80
2018-09-26T01:24:05.493Z,6.47
2018-09-26T01:26:34.289Z,3.73
2018-09-26T01:29:02.493Z,3.60
2018-09-26T01:31:31.571Z,5.17
2018-09-26T01:34:00.216Z,3.98
2018-09-26T01:36:28.677Z,5.37
2018-09-26T01:38:57.368Z,3.60
2018-09-26T01:41:25.529Z,4.40
2018-09-26T01:43:53.981Z,3.33
2018-09-26T01:46:22.609Z,5.43
2018-09-26T01:48:51.023Z,4.00
2018-09-26T01:51:20.025Z,3.47
2018-09-26T01:53:48.727Z,2.87
2018-09-26T01:56:17.317Z,6.00
2018-09-26T01:58:45.443Z,3.53
2018-09-26T02:01:14.493Z,2.90
2018-09-26T02:03:42.621Z,3.70
2018-09-26T02:06:11.052Z,4.63
2018-09-26T02:08:39.180Z,4.30
2018-09-26T02:11:08.454Z,6.15
2018-09-26T02:13:36.908Z,2.85
2018-09-26T02:16:05.248Z,2.67
2018-09-26T02:18:33.367Z,2.90
2018-09-26T02:21:01.503Z,2.30
2018-09-26T02:23:30.503Z,4.37
2018-09-26T02:25:59.121Z,2.53
2018-09-26T02:28:27.580Z,2.40
2018-09-26T02:30:55.733Z,3.63
2018-09-26T02:33:24.634Z,2.65
2018-09-26T02:35:53.336Z,2.30
2018-09-26T02:38:21.989Z,4.57
2018-09-26T02:40:50.258Z,3.80
2018-09-26T02:43:18.547Z,3.93
2018-09-26T02:45:47.030Z,2.20
2018-09-26T02:49:18.343Z,2.63
2018-09-26T02:51:46.509Z,4.33
2018-09-26T02:54:15.181Z,4.00
2018-09-26T02:56:43.554Z,2.67
2018-09-26T02:59:12.248Z,3.60
2018-09-26T03:01:40.411Z,4.00
2018-09-26T03:04:08.661Z,2.90
2018-09-26T03:06:37.293Z,3.23
2018-09-26T03:09:06.516Z,2.20
2018-09-26T03:11:35.434Z,3.70
2018-09-26T03:14:03.801Z,4.87
2018-09-26T03:16:32.581Z,3.50
2018-09-26T03:19:01.129Z,2.73
2018-09-26T03:21:29.640Z,5.73
2018-09-26T03:23:58.340Z,5.63
2018-09-26T03:26:26.865Z,4.95
2018-09-26T03:28:55.265Z,3.47
2018-09-26T03:31:24.200Z,3.30
2018-09-26T03:33:52.428Z,3.17
2018-09-26T03:36:21.207Z,3.63
2018-09-26T03:38:49.372Z,3.60
2018-09-26T03:41:17.708Z,5.80
2018-09-26T03:43:46.124Z,2.72
2018-09-26T03:46:14.477Z,4.58
2018-09-26T03:48:42.969Z,2.60
2018-09-26T03:51:11.410Z,3.23
2018-09-26T03:53:39.884Z,4.50
2018-09-26T03:56:09.052Z,4.30
2018-09-26T03:58:37.390Z,2.63
2018-09-26T04:01:05.865Z,5.53
2018-09-26T04:03:34.620Z,3.27
2018-09-26T04:06:02.758Z,5.33
2018-09-26T04:08:31.209Z,3.80
2018-09-26T04:10:59.356Z,9.07
2018-09-26T04:13:27.761Z,3.63
2018-09-26T04:15:56.468Z,4.27
2018-09-26T04:18:26.188Z,6.43
2018-09-26T04:20:55.449Z,2.77
2018-09-26T04:23:24.414Z,3.80
2018-09-26T04:25:52.764Z,5.20
2018-09-26T04:28:21.828Z,3.35
2018-09-26T04:30:50.344Z,3.77
2018-09-26T04:33:18.848Z,3.57
2018-09-26T04:35:47.308Z,2.60
2018-09-26T04:38:15.649Z,2.73
2018-09-26T04:40:44.537Z,3.30
2018-09-26T04:43:13.040Z,5.67
2018-09-26T04:45:41.529Z,2.30
2018-09-26T04:48:09.820Z,2.43
2018-09-26T04:50:37.991Z,6.07
2018-09-26T04:53:06.701Z,3.90
2018-09-26T04:55:35.171Z,5.37
2018-09-26T04:58:04.292Z,6.10
2018-09-26T05:00:32.528Z,3.70
2018-09-26T05:03:01.012Z,3.67
2018-09-26T05:05:29.804Z,2.83
2018-09-26T05:07:59.200Z,4.83
2018-09-26T05:10:27.885Z,2.30
2018-09-26T05:12:56.374Z,5.47
2018-09-26T05:15:24.768Z,2.60
2018-09-26T05:17:52.935Z,3.27
2018-09-26T05:20:21.685Z,3.22
2018-09-26T05:22:49.887Z,2.43
2018-09-26T05:25:18.144Z,2.53
2018-09-26T05:27:46.959Z,4.73
2018-09-26T05:30:15.932Z,8.68
2018-09-26T05:32:44.711Z,2.90
2018-09-26T05:35:13.161Z,5.93
2018-09-26T05:37:41.925Z,2.50
2018-09-26T05:40:10.345Z,3.27
2018-09-26T05:42:38.597Z,2.50
2018-09-26T05:45:06.740Z,4.47
2018-09-26T05:47:35.209Z,2.87
2018-09-26T05:50:03.566Z,5.17
2018-09-26T05:52:32.232Z,2.63
2018-09-26T05:55:01.064Z,2.77
2018-09-26T05:57:29.220Z,3.80
2018-09-26T05:59:57.704Z,2.73
2018-09-26T06:02:26.504Z,4.20
2018-09-26T06:04:55.262Z,3.30
2018-09-26T06:07:24.015Z,2.93
2018-09-26T06:09:52.481Z,2.00
2018-09-26T06:12:21.169Z,3.93
2018-09-26T06:14:49.589Z,2.62
2018-09-26T06:17:18.205Z,5.05
2018-09-26T06:19:46.679Z,4.20
2018-09-26T06:22:14.813Z,3.47
2018-09-26T06:24:43.347Z,3.17
2018-09-26T06:27:11.889Z,3.27
2018-09-26T06:29:40.092Z,4.60
2018-09-26T06:32:09.076Z,2.53
2018-09-26T06:34:37.773Z,4.40
2018-09-26T06:37:06.176Z,2.97
2018-09-26T06:39:34.333Z,3.77
2018-09-26T06:42:03.104Z,2.43
2018-09-26T06:44:31.630Z,4.23
2018-09-26T06:47:00.125Z,3.33
2018-09-26T06:49:28.692Z,2.10
2018-09-26T06:51:57.082Z,2.03
2018-09-26T06:54:25.573Z,5.53
2018-09-26T06:56:54.104Z,2.40
2018-09-26T06:59:22.601Z,6.70
2018-09-26T07:01:50.724Z,2.90
2018-09-26T07:04:18.961Z,2.90
2018-09-26T07:06:47.122Z,2.20
2018-09-26T07:09:15.595Z,2.17
2018-09-26T07:11:43.933Z,2.83
2018-09-26T07:14:12.074Z,3.83
2018-09-26T07:16:40.577Z,8.20
2018-09-26T07:19:09.581Z,3.40
2018-09-26T07:21:37.919Z,5.43
2018-09-26T07:24:06.696Z,5.60
2018-09-26T07:26:35.360Z,4.57
2018-09-26T07:29:04.041Z,2.10
2018-09-26T07:31:32.563Z,3.43
2018-09-26T07:34:01.051Z,2.50
2018-09-26T07:36:29.224Z,3.23
2018-09-26T07:38:57.657Z,2.47
2018-09-26T07:41:26.085Z,3.27
2018-09-26T07:43:54.552Z,4.23
2018-09-26T07:46:23.166Z,9.13
2018-09-26T07:48:53.384Z,13.57
2018-09-26T07:51:22.201Z,14.58
2018-09-26T07:53:51.477Z,5.62
2018-09-26T07:56:19.863Z,5.13
2018-09-26T07:58:48.205Z,2.13
2018-09-26T08:01:16.658Z,1.60
2018-09-26T08:03:45.377Z,1.67
2018-09-26T08:06:14.137Z,3.55
2018-09-26T08:08:42.276Z,2.33
2018-09-26T08:11:11.030Z,5.03
2018-09-26T08:13:39.703Z,3.33
2018-09-26T08:16:09.756Z,2.15
2018-09-26T08:18:38.053Z,3.47
2018-09-26T08:21:06.873Z,5.00
2018-09-26T08:23:35.040Z,2.93
2018-09-26T08:26:03.161Z,6.63
2018-09-26T08:28:31.338Z,2.30
2018-09-26T08:31:00.013Z,3.47
2018-09-26T08:33:28.316Z,3.47
2018-09-26T08:35:57.041Z,1.80
2018-09-26T08:38:25.224Z,6.73
2018-09-26T08:40:53.645Z,4.50
2018-09-26T08:43:22.884Z,2.47
2018-09-26T08:45:51.566Z,1.50
2018-09-26T08:48:20.181Z,3.35
2018-09-26T08:50:48.365Z,2.03
2018-09-26T08:53:16.841Z,5.57
2018-09-26T08:55:45.309Z,2.50
2018-09-26T08:58:13.457Z,4.50
2018-09-26T09:00:41.633Z,4.83
2018-09-26T09:03:10.436Z,2.60
2018-09-26T09:05:39.661Z,2.52
2018-09-26T09:08:09.779Z,3.87
2018-09-26T09:10:38.576Z,3.85
2018-09-26T09:13:07.355Z,5.17
2018-09-26T09:27:43.626Z,3.57
2018-09-26T09:30:11.932Z,3.27
2018-09-26T09:32:40.076Z,4.50
2018-09-26T09:35:08.515Z,4.85
2018-09-26T09:37:36.860Z,3.67
2018-09-26T09:40:05.871Z,2.87
2018-09-26T09:42:34.803Z,2.30
2018-09-26T09:45:03.453Z,7.27
2018-09-26T09:47:31.818Z,3.13
2018-09-26T09:50:00.322Z,2.47
2018-09-26T09:52:28.673Z,2.53
2018-09-26T09:54:57.175Z,3.37
2018-09-26T09:57:25.659Z,5.43
2018-09-26T09:59:54.136Z,6.63
2018-09-26T10:02:22.649Z,5.70
2018-09-26T10:04:53.200Z,10.00
2018-09-26T10:07:21.972Z,5.43
2018-09-26T10:09:50.416Z,6.07
2018-09-26T10:12:18.980Z,2.97
2018-09-26T10:14:47.100Z,3.20
2018-09-26T10:17:16.276Z,3.15
2018-09-26T10:19:46.012Z,6.23
2018-09-26T10:22:15.856Z,3.10
2018-09-26T10:24:44.220Z,4.50
2018-09-26T10:27:12.665Z,3.63
2018-09-26T10:29:41.408Z,3.03
2018-09-26T10:32:10.187Z,3.00
2018-09-26T10:34:39.065Z,4.50
2018-09-26T10:37:07.445Z,3.50
2018-09-26T10:39:35.999Z,3.50
2018-09-26T10:42:04.735Z,2.50
2018-09-26T10:44:33.745Z,2.47
2018-09-26T10:47:02.212Z,5.20
2018-09-26T10:49:30.632Z,5.58
2018-09-26T10:51:59.293Z,3.80
2018-09-26T10:54:27.736Z,5.70
2018-09-26T10:56:56.146Z,5.30
2018-09-26T10:59:24.659Z,4.00
2018-09-26T11:01:53.515Z,4.10
2018-09-26T11:04:22.122Z,2.87
2018-09-26T11:06:52.099Z,4.15
2018-09-26T11:09:20.829Z,3.35
2018-09-26T11:11:49.008Z,6.37
2018-09-26T11:14:17.545Z,6.70
2018-09-26T11:16:45.952Z,3.23
2018-09-26T11:19:14.235Z,2.67
2018-09-26T11:21:42.695Z,2.40
2018-09-26T11:24:10.851Z,3.50
2018-09-26T11:26:39.277Z,4.77
2018-09-26T11:29:07.821Z,2.95
2018-09-26T11:31:35.948Z,2.47
2018-09-26T11:34:04.478Z,3.10
2018-09-26T11:36:32.805Z,3.53
2018-09-26T11:39:01.296Z,4.75
2018-09-26T11:41:29.644Z,4.40
2018-09-26T11:43:58.667Z,3.77
2018-09-26T11:46:27.360Z,7.43
2018-09-26T11:48:56.164Z,3.72
2018-09-26T11:51:24.280Z,3.13
2018-09-26T11:53:52.771Z,4.73
2018-09-26T11:56:21.469Z,9.83
2018-09-26T11:58:50.340Z,5.23
2018-09-26T12:01:19.422Z,4.90
2018-09-26T12:03:47.872Z,3.12
2018-09-26T12:06:16.384Z,4.03
2018-09-26T12:08:45.248Z,3.15
2018-09-26T12:11:13.728Z,2.57
2018-09-26T12:13:42.156Z,7.00
2018-09-26T12:16:10.555Z,3.17
2018-09-26T12:18:39.260Z,2.67
2018-09-26T12:21:08.032Z,2.80
2018-09-26T12:23:36.507Z,4.93
2018-09-26T12:26:04.967Z,2.87
2018-09-26T12:28:33.600Z,2.63
2018-09-26T12:31:01.985Z,2.83
2018-09-26T12:33:30.148Z,2.33
2018-09-26T12:35:58.260Z,3.35
2018-09-26T12:38:26.884Z,3.13
2018-09-26T12:40:55.348Z,4.20
2018-09-26T12:43:23.990Z,2.50
2018-09-26T12:45:52.360Z,2.67
2018-09-26T12:48:20.816Z,3.63
2018-09-26T12:50:49.484Z,3.40
2018-09-26T12:53:18.230Z,3.40
2018-09-26T12:55:46.896Z,4.20
2018-09-26T12:58:15.781Z,3.73
2018-09-26T13:00:44.253Z,3.97
2018-09-26T13:03:12.442Z,3.43
2018-09-26T13:05:40.760Z,3.50
2018-09-26T13:08:09.556Z,3.23
2018-09-26T13:11:01.148Z,3.43
2018-09-26T13:13:29.627Z,4.23
2018-09-26T13:15:58.462Z,2.98
2018-09-26T13:18:26.947Z,4.53
2018-09-26T13:20:55.425Z,6.53
2018-09-26T13:23:24.080Z,2.07
2018-09-26T13:25:53.808Z,2.05
2018-09-26T13:28:22.588Z,2.67
2018-09-26T13:30:51.500Z,2.60
2018-09-26T13:33:20.452Z,2.90
2018-09-26T13:35:48.852Z,3.67
2018-09-26T13:38:17.220Z,5.80
2018-09-26T13:40:45.820Z,5.13
2018-09-26T13:43:14.216Z,4.97
2018-09-26T13:45:42.930Z,5.03
2018-09-26T13:48:11.543Z,3.10
2018-09-26T13:50:40.445Z,3.60
2018-09-26T13:53:08.558Z,2.30
2018-09-26T13:55:36.999Z,2.60
2018-09-26T13:58:05.954Z,3.53
2018-09-26T14:00:34.584Z,4.67
2018-09-26T14:03:03.024Z,4.70
2018-09-26T14:05:31.378Z,2.40
2018-09-26T14:07:59.819Z,3.57
2018-09-26T14:10:28.303Z,5.53
2018-09-26T14:12:56.662Z,4.50
2018-09-26T14:15:25.232Z,3.30
2018-09-26T14:17:53.637Z,3.20
2018-09-26T14:20:38.303Z,4.43
2018-09-26T14:23:06.820Z,5.67
2018-09-26T14:25:35.838Z,5.10
2018-09-26T14:28:04.707Z,5.28
2018-09-26T14:30:33.551Z,5.07
2018-09-26T14:33:02.171Z,4.50
2018-09-26T14:35:30.640Z,4.53
2018-09-26T14:37:58.908Z,8.50
2018-09-26T14:40:27.487Z,2.80
2018-09-26T14:42:56.040Z,2.00
2018-09-26T14:45:24.490Z,5.37
2018-09-26T14:47:52.884Z,4.93
2018-09-26T14:50:21.872Z,5.75
2018-09-26T14:52:50.522Z,3.57
2018-09-26T14:55:19.028Z,3.50
2018-09-26T14:57:47.492Z,3.30
2018-09-26T15:00:15.807Z,4.67
2018-09-26T15:02:44.504Z,4.62
2018-09-26T15:05:12.779Z,2.73
2018-09-26T15:07:41.063Z,4.63
2018-09-26T15:10:09.805Z,6.43
2018-09-26T15:12:38.528Z,5.67
2018-09-26T15:15:07.287Z,3.57
2018-09-26T15:17:35.739Z,2.90
2018-09-26T15:20:04.995Z,4.58
2018-09-26T15:22:33.597Z,2.97
2018-09-26T15:27:35.989Z,4.27
2018-09-26T15:30:04.845Z,4.00
2018-09-26T15:32:33.609Z,3.20
2018-09-26T15:35:02.168Z,4.60
2018-09-26T15:37:30.620Z,5.37
2018-09-26T15:39:58.894Z,5.75
2018-09-26T15:42:27.681Z,4.90
2018-09-26T15:44:56.335Z,4.17
2018-09-26T15:47:24.719Z,3.40
2018-09-26T15:49:53.210Z,4.63
2018-09-26T15:52:21.742Z,3.87
2018-09-26T15:54:50.183Z,3.07
2018-09-26T15:57:18.633Z,3.77
2018-09-26T15:59:47.136Z,2.80
2018-09-26T16:02:15.496Z,4.60
2018-09-26T16:04:44.076Z,6.40
2018-09-26T16:07:12.865Z,3.07
2018-09-26T16:09:41.318Z,3.07
2018-09-26T16:12:10.301Z,3.77
2018-09-26T16:14:38.951Z,3.00
2018-09-26T16:17:07.913Z,4.42
2018-09-26T16:19:36.850Z,4.70
2018-09-26T16:22:05.599Z,2.83
2018-09-26T16:24:34.256Z,4.50
2018-09-26T16:27:02.782Z,5.42
2018-09-26T16:29:31.095Z,3.83
2018-09-26T16:31:59.884Z,4.53
2018-09-26T16:34:28.332Z,5.97
2018-09-26T16:36:57.096Z,3.20
2018-09-26T16:39:25.657Z,5.30
2018-09-26T16:41:54.140Z,4.07
2018-09-26T16:44:22.546Z,5.60
2018-09-26T16:46:51.199Z,3.67
2018-09-26T16:49:19.928Z,5.13
2018-09-26T16:51:48.365Z,4.77
2018-09-26T16:54:17.097Z,8.30
2018-09-26T16:56:45.640Z,6.00
2018-09-26T16:59:14.273Z,3.43
2018-09-26T17:01:42.935Z,5.53
2018-09-26T17:04:11.393Z,4.67
2018-09-26T17:06:39.904Z,4.50
2018-09-26T17:09:11.427Z,7.23
2018-09-26T17:11:39.784Z,8.88
2018-09-26T17:14:08.062Z,3.83
2018-09-26T17:16:36.993Z,4.60
2018-09-26T17:19:05.477Z,4.03
2018-09-26T17:21:33.972Z,5.43
2018-09-26T17:24:02.556Z,3.27
2018-09-26T17:26:30.791Z,9.60
2018-09-26T17:28:59.443Z,5.20
2018-09-26T17:31:27.714Z,4.60
2018-09-26T17:33:56.377Z,4.63
2018-09-26T17:36:25.016Z,4.90
2018-09-26T17:38:53.661Z,6.50
2018-09-26T17:41:21.964Z,4.93
2018-09-26T17:43:50.090Z,4.33
2018-09-26T17:46:21.708Z,5.72
2018-09-26T17:48:52.431Z,4.07
2018-09-26T17:51:21.030Z,4.67
2018-09-26T17:53:49.484Z,4.20
2018-09-26T17:56:17.848Z,6.40
2018-09-26T17:58:45.960Z,5.17
2018-09-26T18:01:14.393Z,6.20
2018-09-26T18:03:43.053Z,5.40
2018-09-26T18:06:11.491Z,4.40
2018-09-26T18:08:40.231Z,4.40
2018-09-26T18:11:08.778Z,5.85
2018-09-26T18:13:36.936Z,7.97
2018-09-26T18:16:05.464Z,6.25
2018-09-26T18:18:33.764Z,5.27
2018-09-26T18:21:02.484Z,6.30
2018-09-26T18:23:30.894Z,4.43
2018-09-26T18:25:59.447Z,5.50
2018-09-26T18:28:27.817Z,5.07
2018-09-26T18:30:56.551Z,5.40
2018-09-26T18:33:24.821Z,5.37
2018-09-26T18:35:53.760Z,5.47
2018-09-26T18:38:21.987Z,6.93
2018-09-26T18:40:50.114Z,9.03
2018-09-26T18:43:19.070Z,5.50
2018-09-26T18:45:47.656Z,5.67
2018-09-26T18:48:16.148Z,7.43
2018-09-26T18:50:44.830Z,5.97
2018-09-26T18:53:13.501Z,6.73
2018-09-26T18:55:42.168Z,6.70
2018-09-26T18:58:10.788Z,5.20
2018-09-26T19:00:39.236Z,6.23
2018-09-26T19:03:08.099Z,9.00
2018-09-26T19:05:36.641Z,9.70
2018-09-26T19:08:05.603Z,7.15
2018-09-26T19:10:33.992Z,6.03
2018-09-26T19:13:02.569Z,5.00
2018-09-26T19:15:31.248Z,6.40
2018-09-26T19:17:59.359Z,6.75
2018-09-26T19:20:28.052Z,6.40
2018-09-26T19:22:56.622Z,12.43
2018-09-26T19:25:25.316Z,6.57
2018-09-26T19:27:53.779Z,6.47
2018-09-26T19:30:22.429Z,7.60
2018-09-26T19:32:51.084Z,7.70
2018-09-26T19:35:19.691Z,11.67
2018-09-26T19:37:48.241Z,8.90
2018-09-26T19:40:16.363Z,6.90
2018-09-26T19:42:44.468Z,8.93
2018-09-26T19:45:13.542Z,7.72
2018-09-26T19:47:41.992Z,6.90
2018-09-26T19:50:10.499Z,7.57
2018-09-26T19:52:38.600Z,7.27
2018-09-26T19:55:07.024Z,7.65
2018-09-26T19:57:35.152Z,10.50
2018-09-26T20:00:03.732Z,9.25
2018-09-26T20:02:32.453Z,12.20
2018-09-26T20:05:00.576Z,5.33
2018-09-26T20:07:29.352Z,6.20
2018-09-26T20:09:57.524Z,8.30
2018-09-26T20:12:26.305Z,6.92
2018-09-26T20:15:34.633Z,6.55
2018-09-26T20:18:07.689Z,6.07
2018-09-26T20:20:37.580Z,7.00
2018-09-26T20:23:06.350Z,6.35
2018-09-26T20:25:35.292Z,6.15
2018-09-26T20:28:03.721Z,6.80
2018-09-26T20:30:32.399Z,10.73
2018-09-26T20:33:01.171Z,6.57
2018-09-26T20:35:29.601Z,10.00
2018-09-26T20:37:58.108Z,7.10
2018-09-26T20:40:26.784Z,5.77
2018-09-26T20:42:55.179Z,9.53
2018-09-26T20:45:24.665Z,7.13
2018-09-26T20:47:53.981Z,6.50
2018-09-26T20:50:22.263Z,8.00
2018-09-26T20:52:51.448Z,7.60
2018-09-26T20:55:19.916Z,9.13
2018-09-26T20:57:48.552Z,6.63
2018-09-26T21:00:17.194Z,7.53
2018-09-26T21:02:45.601Z,9.20
2018-09-26T21:05:14.576Z,8.23
2018-09-26T21:07:42.680Z,7.57
2018-09-26T21:10:11.643Z,7.05
2018-09-26T21:12:40.252Z,9.47
2018-09-26T21:15:08.844Z,6.95
2018-09-26T21:17:37.688Z,6.57
2018-09-26T21:20:06.267Z,6.87
2018-09-26T21:22:34.716Z,7.80
2018-09-26T21:25:03.473Z,7.67
2018-09-26T21:27:31.916Z,7.83
2018-09-26T21:30:00.523Z,8.90
2018-09-26T21:32:28.979Z,9.13
2018-09-26T21:34:57.540Z,7.77
2018-09-26T21:37:25.840Z,8.73
2018-09-26T21:39:54.245Z,8.63
2018-09-26T21:42:22.687Z,7.63
2018-09-26T21:44:50.799Z,9.63
2018-09-26T21:47:19.239Z,8.83
2018-09-26T21:49:47.420Z,7.00
2018-09-26T21:52:15.868Z,7.50
2018-09-26T21:54:44.724Z,6.97
2018-09-26T21:57:13.164Z,7.50
2018-09-26T21:59:41.469Z,7.33
2018-09-26T22:02:10.348Z,7.77
2018-09-26T22:04:38.786Z,7.90
2018-09-26T22:07:06.899Z,10.40
2018-09-26T22:09:35.288Z,6.97
2018-09-26T22:12:04.064Z,9.70
2018-09-26T22:14:32.828Z,10.47
2018-09-26T22:17:01.569Z,7.60
2018-09-26T22:19:29.676Z,8.70
2018-09-26T22:21:58.141Z,7.15
2018-09-26T22:24:26.340Z,9.70
2018-09-26T22:26:55.072Z,8.30
2018-09-26T22:29:23.492Z,9.70
2018-09-26T22:31:51.944Z,8.43
2018-09-26T22:34:20.656Z,8.30
2018-09-26T22:36:49.112Z,8.80
2018-09-26T22:39:17.726Z,9.23
2018-09-26T22:41:46.368Z,7.60
2018-09-26T22:44:14.866Z,9.53
2018-09-26T22:46:43.324Z,9.47
2018-09-26T22:49:11.870Z,7.57
2018-09-26T22:51:39.993Z,7.83
2018-09-26T22:54:09.046Z,10.15
2018-09-26T22:56:37.656Z,8.38
2018-09-26T22:59:06.165Z,10.88
2018-09-26T23:01:34.459Z,9.83
2018-09-26T23:04:06.124Z,9.63
2018-09-26T23:06:37.705Z,8.73
2018-09-26T23:09:08.460Z,7.62
2018-09-26T23:11:37.031Z,12.20
2018-09-26T23:14:05.453Z,8.93
2018-09-26T23:16:33.887Z,7.10
2018-09-26T23:19:02.239Z,7.57
2018-09-26T23:21:31.104Z,8.23
2018-09-26T23:24:03.975Z,7.55
2018-09-26T23:26:32.138Z,7.63
2018-09-26T23:29:01.080Z,10.55
2018-09-26T23:31:29.520Z,11.70
2018-09-26T23:33:58.119Z,9.57
2018-09-26T23:36:26.904Z,9.00
2018-09-26T23:38:55.289Z,7.77
2018-09-26T23:41:24.001Z,13.10
2018-09-26T23:43:52.128Z,9.20
2018-09-26T23:46:20.852Z,12.40
2018-09-26T23:48:48.968Z,7.17
2018-09-26T23:51:17.407Z,10.40
2018-09-26T23:53:46.089Z,7.90
2018-09-26T23:56:14.532Z,13.73
2018-09-26T23:58:42.988Z,10.60
